sensor_id;sensor_type;location;lat;lon;timestamp;pressure;altitude;pressure_sealevel;temperature;humidity
58092;BME280;43896;48.178;11.578;2023-07-31T00:02:14;95994.59;;;19.02;54.68
58092;BME280;43896;48.178;11.578;2023-07-31T00:04:39;96030.91;;;18.90;55.41
58092;BME280;43896;48.178;11.578;2023-07-31T00:07:05;96036.03;;;18.98;56.32
58092;BME280;43896;48.178;11.578;2023-07-31T00:09:34;95952.19;;;18.67;55.56
58092;BME280;43896;48.178;11.578;2023-07-31T00:11:59;96031.84;;;18.35;56.91
58092;BME280;43896;48.178;11.578;2023-07-31T00:14:25;95934.13;;;18.09;56.44
58092;BME280;43896;48.178;11.578;2023-07-31T00:16:50;95973.09;;;18.70;55.88
58092;BME280;43896;48.178;11.578;2023-07-31T00:19:16;96031.72;;;19.17;55.27
58092;BME280;43896;48.178;11.578;2023-07-31T00:21:41;95940.31;;;18.50;54.71
58092;BME280;43896;48.178;11.578;2023-07-31T00:24:06;95965.25;;;18.22;57.20
58092;BME280;43896;48.178;11.578;2023-07-31T00:26:32;95972.28;;;18.50;56.41
58092;BME280;43896;48.178;11.578;2023-07-31T00:28:57;95981.69;;;18.72;56.06
58092;BME280;43896;48.178;11.578;2023-07-31T00:31:22;95932.09;;;18.65;55.56
58092;BME280;43896;48.178;11.578;2023-07-31T00:33:48;95960.81;;;18.83;55.42
58092;BME280;43896;48.178;11.578;2023-07-31T00:36:13;96021.84;;;19.31;54.91
58092;BME280;43896;48.178;11.578;2023-07-31T00:38:38;95949.53;;;18.74;55.48
58092;BME280;43896;48.178;11.578;2023-07-31T00:41:04;95986.22;;;18.92;55.99
58092;BME280;43896;48.178;11.578;2023-07-31T00:43:29;95932.94;;;18.65;55.80
58092;BME280;43896;48.178;11.578;2023-07-31T00:45:55;96000.53;;;18.98;56.60
58092;BME280;43896;48.178;11.578;2023-07-31T00:48:20;95950.94;;;18.63;56.47
58092;BME280;43896;48.178;11.578;2023-07-31T00:50:46;95915.72;;;18.48;56.21
58092;BME280;43896;48.178;11.578;2023-07-31T00:53:13;95932.72;;;18.53;56.16
58092;BME280;43896;48.178;11.578;2023-07-31T00:55:38;95962.19;;;18.79;56.60
58092;BME280;43896;48.178;11.578;2023-07-31T00:58:04;95946.84;;;18.47;56.86
58092;BME280;43896;48.178;11.578;2023-07-31T01:00:29;95926.38;;;18.28;57.44
58092;BME280;43896;48.178;11.578;2023-07-31T01:02:55;95928.81;;;18.43;56.92
58092;BME280;43896;48.178;11.578;2023-07-31T01:05:28;95971.84;;;18.26;57.46
58092;BME280;43896;48.178;11.578;2023-07-31T01:08:12;95970.81;;;18.34;57.84
58092;BME280;43896;48.178;11.578;2023-07-31T01:10:47;95985.38;;;18.78;56.76
58092;BME280;43896;48.178;11.578;2023-07-31T01:13:14;95945.41;;;18.71;55.64
58092;BME280;43896;48.178;11.578;2023-07-31T01:15:40;95922.88;;;18.67;56.04
58092;BME280;43896;48.178;11.578;2023-07-31T01:18:05;95941.13;;;18.84;56.67
58092;BME280;43896;48.178;11.578;2023-07-31T01:20:31;95965.28;;;19.09;56.06
58092;BME280;43896;48.178;11.578;2023-07-31T01:26:23;95948.69;;;18.93;56.03
58092;BME280;43896;48.178;11.578;2023-07-31T01:31:26;95995.00;;;19.19;55.97
58092;BME280;43896;48.178;11.578;2023-07-31T01:33:54;95894.19;;;18.69;55.52
58092;BME280;43896;48.178;11.578;2023-07-31T01:36:21;95966.88;;;19.17;55.10
58092;BME280;43896;48.178;11.578;2023-07-31T01:38:47;95943.97;;;18.96;55.08
58092;BME280;43896;48.178;11.578;2023-07-31T01:41:12;95923.50;;;18.83;55.25
58092;BME280;43896;48.178;11.578;2023-07-31T01:43:38;95976.13;;;19.14;55.62
58092;BME280;43896;48.178;11.578;2023-07-31T01:46:04;95955.03;;;18.99;55.91
58092;BME280;43896;48.178;11.578;2023-07-31T01:48:29;95946.63;;;18.96;56.15
58092;BME280;43896;48.178;11.578;2023-07-31T01:51:00;95897.25;;;18.66;56.04
58092;BME280;43896;48.178;11.578;2023-07-31T01:53:26;95935.38;;;18.93;55.68
58092;BME280;43896;48.178;11.578;2023-07-31T01:55:51;95930.84;;;18.94;56.32
58092;BME280;43896;48.178;11.578;2023-07-31T01:58:16;95950.50;;;19.06;56.23
58092;BME280;43896;48.178;11.578;2023-07-31T02:00:42;95976.13;;;19.21;55.53
58092;BME280;43896;48.178;11.578;2023-07-31T02:03:07;95972.22;;;19.17;55.26
58092;BME280;43896;48.178;11.578;2023-07-31T02:05:32;95927.59;;;18.85;55.95
58092;BME280;43896;48.178;11.578;2023-07-31T02:07:58;95950.09;;;19.03;55.66
58092;BME280;43896;48.178;11.578;2023-07-31T02:10:23;95898.50;;;18.70;56.29
58092;BME280;43896;48.178;11.578;2023-07-31T02:12:49;95879.03;;;18.63;55.73
58092;BME280;43896;48.178;11.578;2023-07-31T02:15:14;95955.22;;;19.04;56.12
58092;BME280;43896;48.178;11.578;2023-07-31T02:17:39;95949.69;;;18.99;56.05
58092;BME280;43896;48.178;11.578;2023-07-31T02:20:05;95869.41;;;18.49;55.42
58092;BME280;43896;48.178;11.578;2023-07-31T02:22:31;95893.38;;;18.69;55.33
58092;BME280;43896;48.178;11.578;2023-07-31T02:24:56;95868.63;;;18.42;56.36
58092;BME280;43896;48.178;11.578;2023-07-31T02:27:21;95935.78;;;18.90;56.47
58092;BME280;43896;48.178;11.578;2023-07-31T02:29:49;95902.56;;;18.80;56.37
58092;BME280;43896;48.178;11.578;2023-07-31T02:32:14;95888.25;;;18.74;55.97
58092;BME280;43896;48.178;11.578;2023-07-31T02:34:40;95871.47;;;18.60;56.06
58092;BME280;43896;48.178;11.578;2023-07-31T02:37:05;95900.09;;;18.78;56.86
58092;BME280;43896;48.178;11.578;2023-07-31T02:39:30;95941.50;;;19.07;56.29
58092;BME280;43896;48.178;11.578;2023-07-31T02:41:56;95935.75;;;19.04;56.38
58092;BME280;43896;48.178;11.578;2023-07-31T02:44:21;95910.56;;;18.93;56.74
58092;BME280;43896;48.178;11.578;2023-07-31T02:46:46;95883.31;;;18.71;57.35
58092;BME280;43896;48.178;11.578;2023-07-31T02:49:12;95925.91;;;19.04;56.57
58092;BME280;43896;48.178;11.578;2023-07-31T02:51:37;95914.06;;;18.87;57.25
58092;BME280;43896;48.178;11.578;2023-07-31T02:54:02;95922.88;;;18.87;57.66
58092;BME280;43896;48.178;11.578;2023-07-31T02:56:28;95908.31;;;18.77;57.15
58092;BME280;43896;48.178;11.578;2023-07-31T02:58:53;95872.91;;;18.49;57.39
58092;BME280;43896;48.178;11.578;2023-07-31T03:01:18;95846.72;;;18.33;57.14
58092;BME280;43896;48.178;11.578;2023-07-31T03:03:44;95852.66;;;18.35;58.35
58092;BME280;43896;48.178;11.578;2023-07-31T03:06:09;95878.66;;;18.40;58.62
58092;BME280;43896;48.178;11.578;2023-07-31T03:08:34;95883.16;;;18.19;58.99
58092;BME280;43896;48.178;11.578;2023-07-31T03:11:00;95863.28;;;18.15;58.30
58092;BME280;43896;48.178;11.578;2023-07-31T03:13:25;95862.66;;;17.99;58.79
58092;BME280;43896;48.178;11.578;2023-07-31T03:15:50;95858.41;;;17.98;59.02
58092;BME280;43896;48.178;11.578;2023-07-31T03:18:16;95818.63;;;17.84;58.72
58092;BME280;43896;48.178;11.578;2023-07-31T03:20:42;95834.00;;;18.02;59.22
58092;BME280;43896;48.178;11.578;2023-07-31T03:23:09;95810.47;;;17.85;58.99
58092;BME280;43896;48.178;11.578;2023-07-31T03:25:34;95910.19;;;18.49;58.74
58092;BME280;43896;48.178;11.578;2023-07-31T03:27:59;95885.59;;;18.27;59.10
58092;BME280;43896;48.178;11.578;2023-07-31T03:30:25;95845.28;;;17.90;59.92
58092;BME280;43896;48.178;11.578;2023-07-31T03:32:50;95895.03;;;18.23;59.78
58092;BME280;43896;48.178;11.578;2023-07-31T03:35:15;95922.06;;;18.33;60.22
58092;BME280;43896;48.178;11.578;2023-07-31T03:37:41;95855.94;;;17.90;61.22
58092;BME280;43896;48.178;11.578;2023-07-31T03:40:07;95873.53;;;18.05;62.13
58092;BME280;43896;48.178;11.578;2023-07-31T03:42:32;95929.66;;;18.36;61.31
58092;BME280;43896;48.178;11.578;2023-07-31T03:44:58;95907.53;;;18.23;61.42
58092;BME280;43896;48.178;11.578;2023-07-31T03:47:23;95840.72;;;17.84;61.28
58092;BME280;43896;48.178;11.578;2023-07-31T03:49:48;95886.44;;;18.08;61.48
58092;BME280;43896;48.178;11.578;2023-07-31T03:52:14;95874.16;;;18.00;61.29
58092;BME280;43896;48.178;11.578;2023-07-31T03:54:39;95901.38;;;18.22;61.82
58092;BME280;43896;48.178;11.578;2023-07-31T03:57:05;95897.50;;;18.18;61.88
58092;BME280;43896;48.178;11.578;2023-07-31T03:59:30;95920.22;;;18.27;61.82
58092;BME280;43896;48.178;11.578;2023-07-31T04:01:55;95859.78;;;17.81;62.19
58092;BME280;43896;48.178;11.578;2023-07-31T04:04:21;95860.59;;;17.81;61.92
58092;BME280;43896;48.178;11.578;2023-07-31T04:06:46;95886.84;;;18.11;61.90
58092;BME280;43896;48.178;11.578;2023-07-31T04:09:12;95845.28;;;17.90;62.19
58092;BME280;43896;48.178;11.578;2023-07-31T04:11:37;95915.72;;;18.48;61.32
58092;BME280;43896;48.178;11.578;2023-07-31T04:14:04;95889.72;;;18.36;61.61
58092;BME280;43896;48.178;11.578;2023-07-31T04:16:29;95847.31;;;18.22;61.52
58092;BME280;43896;48.178;11.578;2023-07-31T04:18:55;95862.47;;;18.34;61.82
58092;BME280;43896;48.178;11.578;2023-07-31T04:21:20;95857.97;;;18.28;61.66
58092;BME280;43896;48.178;11.578;2023-07-31T04:23:45;95859.81;;;18.34;61.21
58092;BME280;43896;48.178;11.578;2023-07-31T04:26:11;95863.50;;;18.33;61.88
58092;BME280;43896;48.178;11.578;2023-07-31T04:28:36;95853.69;;;18.01;62.17
58092;BME280;43896;48.178;11.578;2023-07-31T04:31:02;95903.22;;;18.28;62.82
58092;BME280;43896;48.178;11.578;2023-07-31T04:33:28;95845.09;;;17.98;62.64
58092;BME280;43896;48.178;11.578;2023-07-31T04:35:53;95826.66;;;18.10;61.64
58092;BME280;43896;48.178;11.578;2023-07-31T04:38:19;95909.75;;;18.66;61.45
58092;BME280;43896;48.178;11.578;2023-07-31T04:40:45;95915.13;;;18.19;62.84
58092;BME280;43896;48.178;11.578;2023-07-31T04:43:10;95815.81;;;17.92;62.10
58092;BME280;43896;48.178;11.578;2023-07-31T04:45:36;95808.44;;;17.94;62.38
58092;BME280;43896;48.178;11.578;2023-07-31T04:48:01;95867.38;;;18.51;61.54
58092;BME280;43896;48.178;11.578;2023-07-31T04:50:26;95892.56;;;18.55;62.39
58092;BME280;43896;48.178;11.578;2023-07-31T04:52:52;95863.22;;;17.68;64.85
58092;BME280;43896;48.178;11.578;2023-07-31T04:55:17;95851.22;;;18.12;63.38
58092;BME280;43896;48.178;11.578;2023-07-31T04:57:42;95900.13;;;18.65;62.18
58092;BME280;43896;48.178;11.578;2023-07-31T05:00:08;95882.50;;;18.70;61.91
58092;BME280;43896;48.178;11.578;2023-07-31T05:02:33;95847.53;;;18.20;62.39
58092;BME280;43896;48.178;11.578;2023-07-31T05:04:59;95890.69;;;18.82;61.96
58092;BME280;43896;48.178;11.578;2023-07-31T05:07:24;95890.28;;;18.92;61.30
58092;BME280;43896;48.178;11.578;2023-07-31T05:09:49;95883.31;;;18.71;61.71
58092;BME280;43896;48.178;11.578;2023-07-31T05:12:15;95895.00;;;18.56;62.94
58092;BME280;43896;48.178;11.578;2023-07-31T05:14:40;95872.09;;;18.49;63.02
58092;BME280;43896;48.178;11.578;2023-07-31T05:17:05;95908.31;;;18.77;62.78
58092;BME280;43896;48.178;11.578;2023-07-31T05:19:31;95906.69;;;18.62;62.49
58092;BME280;43896;48.178;11.578;2023-07-31T05:21:56;95880.47;;;18.72;62.18
58092;BME280;43896;48.178;11.578;2023-07-31T05:24:21;95900.28;;;19.03;61.28
58092;BME280;43896;48.178;11.578;2023-07-31T05:26:47;95903.34;;;19.14;61.43
58092;BME280;43896;48.178;11.578;2023-07-31T05:29:12;95880.56;;;19.18;61.28
58092;BME280;43896;48.178;11.578;2023-07-31T05:31:38;95880.75;;;19.23;61.49
58092;BME280;43896;48.178;11.578;2023-07-31T05:34:04;95853.50;;;19.14;60.72
58092;BME280;43896;48.178;11.578;2023-07-31T05:36:29;95852.88;;;19.19;60.45
58092;BME280;43896;48.178;11.578;2023-07-31T05:38:54;95881.88;;;19.40;60.38
58092;BME280;43896;48.178;11.578;2023-07-31T05:41:19;95900.88;;;19.57;59.36
58092;BME280;43896;48.178;11.578;2023-07-31T05:43:45;95873.75;;;19.22;59.88
58092;BME280;43896;48.178;11.578;2023-07-31T05:46:11;95863.50;;;19.25;59.20
58092;BME280;43896;48.178;11.578;2023-07-31T05:48:37;95853.44;;;19.27;58.95
58092;BME280;43896;48.178;11.578;2023-07-31T05:51:02;95895.53;;;19.64;58.62
58092;BME280;43896;48.178;11.578;2023-07-31T05:53:28;95847.91;;;19.29;58.69
58092;BME280;43896;48.178;11.578;2023-07-31T05:55:53;95881.03;;;19.46;58.49
58092;BME280;43896;48.178;11.578;2023-07-31T05:58:18;95881.00;;;19.60;58.46
58092;BME280;43896;48.178;11.578;2023-07-31T06:00:44;95879.09;;;19.67;58.14
58092;BME280;43896;48.178;11.578;2023-07-31T06:03:09;95863.75;;;19.56;57.03
58092;BME280;43896;48.178;11.578;2023-07-31T06:05:35;95864.00;;;19.47;57.17
58092;BME280;43896;48.178;11.578;2023-07-31T06:08:00;95896.88;;;19.80;57.46
58092;BME280;43896;48.178;11.578;2023-07-31T06:10:26;95891.25;;;19.95;56.91
58092;BME280;43896;48.178;11.578;2023-07-31T06:12:52;95864.06;;;19.79;56.47
58092;BME280;43896;48.178;11.578;2023-07-31T06:15:18;95837.81;;;19.76;56.94
58092;BME280;43896;48.178;11.578;2023-07-31T06:17:44;95836.78;;;19.77;55.82
58092;BME280;43896;48.178;11.578;2023-07-31T06:20:10;95849.50;;;19.75;56.04
58092;BME280;43896;48.178;11.578;2023-07-31T06:22:36;95856.06;;;19.79;55.80
58092;BME280;43896;48.178;11.578;2023-07-31T06:25:02;95908.38;;;20.12;55.59
58092;BME280;43896;48.178;11.578;2023-07-31T06:27:28;95890.88;;;19.91;55.98
58092;BME280;43896;48.178;11.578;2023-07-31T06:29:53;95849.72;;;19.74;56.08
58092;BME280;43896;48.178;11.578;2023-07-31T06:32:19;95892.66;;;19.97;55.38
58092;BME280;43896;48.178;11.578;2023-07-31T06:34:44;95858.72;;;19.79;56.24
58092;BME280;43896;48.178;11.578;2023-07-31T06:37:10;95873.59;;;19.94;55.41
58092;BME280;43896;48.178;11.578;2023-07-31T06:39:35;95911.22;;;20.17;55.46
58092;BME280;43896;48.178;11.578;2023-07-31T06:42:01;95901.19;;;20.13;55.61
58092;BME280;43896;48.178;11.578;2023-07-31T06:44:26;95889.34;;;20.02;57.31
58092;BME280;43896;48.178;11.578;2023-07-31T06:46:52;95899.44;;;20.25;55.17
58092;BME280;43896;48.178;11.578;2023-07-31T06:49:17;95915.53;;;20.43;55.39
58092;BME280;43896;48.178;11.578;2023-07-31T06:51:42;95876.47;;;20.24;55.48
58092;BME280;43896;48.178;11.578;2023-07-31T06:54:09;95895.59;;;20.46;54.20
58092;BME280;43896;48.178;11.578;2023-07-31T06:56:34;95874.28;;;20.39;54.03
58092;BME280;43896;48.178;11.578;2023-07-31T06:59:00;95882.84;;;20.48;54.93
58092;BME280;43896;48.178;11.578;2023-07-31T07:01:25;95853.88;;;20.45;54.62
58092;BME280;43896;48.178;11.578;2023-07-31T07:03:51;95838.19;;;20.30;55.11
58092;BME280;43896;48.178;11.578;2023-07-31T07:06:17;95853.88;;;20.45;54.08
58092;BME280;43896;48.178;11.578;2023-07-31T07:08:43;95883.97;;;20.59;53.74
58092;BME280;43896;48.178;11.578;2023-07-31T07:11:08;95869.47;;;20.48;54.23
58092;BME280;43896;48.178;11.578;2023-07-31T07:13:33;95835.34;;;20.25;54.65
58092;BME280;43896;48.178;11.578;2023-07-31T07:15:59;95900.06;;;20.52;54.22
58092;BME280;43896;48.178;11.578;2023-07-31T07:18:25;95858.31;;;20.33;53.53
58092;BME280;43896;48.178;11.578;2023-07-31T07:20:51;95890.41;;;20.51;54.21
58092;BME280;43896;48.178;11.578;2023-07-31T07:23:17;95862.84;;;20.32;55.15
58092;BME280;43896;48.178;11.578;2023-07-31T07:25:43;95882.13;;;20.59;54.04
58092;BME280;43896;48.178;11.578;2023-07-31T07:28:09;95869.97;;;20.64;54.13
58092;BME280;43896;48.178;11.578;2023-07-31T07:30:35;95857.00;;;20.67;53.84
58092;BME280;43896;48.178;11.578;2023-07-31T07:33:00;95883.59;;;20.81;53.77
58092;BME280;43896;48.178;11.578;2023-07-31T07:35:25;95878.03;;;20.82;53.82
58092;BME280;43896;48.178;11.578;2023-07-31T07:37:51;95878.69;;;20.52;55.15
58092;BME280;43896;48.178;11.578;2023-07-31T07:40:16;95860.25;;;20.69;53.67
58092;BME280;43896;48.178;11.578;2023-07-31T07:42:41;95872.81;;;21.06;54.73
58092;BME280;43896;48.178;11.578;2023-07-31T07:45:07;95844.53;;;20.79;54.32
58092;BME280;43896;48.178;11.578;2023-07-31T07:47:33;95853.50;;;21.22;54.66
58092;BME280;43896;48.178;11.578;2023-07-31T07:49:58;95847.91;;;21.42;52.15
58092;BME280;43896;48.178;11.578;2023-07-31T07:52:24;95850.38;;;20.88;54.10
58092;BME280;43896;48.178;11.578;2023-07-31T07:54:49;95838.09;;;20.87;54.40
58092;BME280;43896;48.178;11.578;2023-07-31T07:57:15;95835.38;;;21.06;54.25
58092;BME280;43896;48.178;11.578;2023-07-31T07:59:41;95808.19;;;21.09;53.64
58092;BME280;43896;48.178;11.578;2023-07-31T08:02:06;95828.41;;;21.23;53.86
58092;BME280;43896;48.178;11.578;2023-07-31T08:04:31;95842.78;;;21.41;51.38
58092;BME280;43896;48.178;11.578;2023-07-31T08:06:57;95833.41;;;21.31;50.71
58092;BME280;43896;48.178;11.578;2023-07-31T08:09:22;95850.78;;;20.73;53.66
58092;BME280;43896;48.178;11.578;2023-07-31T08:11:47;95846.69;;;21.08;51.68
58092;BME280;43896;48.178;11.578;2023-07-31T08:14:13;95855.00;;;21.18;51.71
58092;BME280;43896;48.178;11.578;2023-07-31T08:16:38;95814.53;;;20.96;51.87
58092;BME280;43896;48.178;11.578;2023-07-31T08:19:04;95849.66;;;21.18;52.25
58092;BME280;43896;48.178;11.578;2023-07-31T08:21:29;95789.63;;;21.14;52.41
58092;BME280;43896;48.178;11.578;2023-07-31T08:23:55;95825.66;;;21.60;50.88
58092;BME280;43896;48.178;11.578;2023-07-31T08:26:20;95849.25;;;21.82;50.80
58092;BME280;43896;48.178;11.578;2023-07-31T08:28:46;95852.84;;;21.87;49.90
58092;BME280;43896;48.178;11.578;2023-07-31T08:31:12;95844.56;;;21.77;50.70
58092;BME280;43896;48.178;11.578;2023-07-31T08:33:38;95845.47;;;21.71;50.39
58092;BME280;43896;48.178;11.578;2023-07-31T08:36:04;95810.75;;;21.34;50.68
58092;BME280;43896;48.178;11.578;2023-07-31T08:38:30;95850.75;;;21.29;52.36
58092;BME280;43896;48.178;11.578;2023-07-31T08:40:58;95825.38;;;21.31;50.16
58092;BME280;43896;48.178;11.578;2023-07-31T08:43:26;95843.97;;;21.26;49.00
58092;BME280;43896;48.178;11.578;2023-07-31T08:45:52;95830.28;;;21.34;48.71
58092;BME280;43896;48.178;11.578;2023-07-31T08:48:18;95846.47;;;21.40;50.38
58092;BME280;43896;48.178;11.578;2023-07-31T08:50:44;95856.16;;;21.41;48.54
58092;BME280;43896;48.178;11.578;2023-07-31T08:53:10;95818.94;;;21.21;48.56
58092;BME280;43896;48.178;11.578;2023-07-31T08:55:36;95825.09;;;21.21;48.80
58092;BME280;43896;48.178;11.578;2023-07-31T08:58:03;95839.53;;;21.20;49.22
58092;BME280;43896;48.178;11.578;2023-07-31T09:00:29;95845.47;;;21.22;49.62
58092;BME280;43896;48.178;11.578;2023-07-31T09:03:09;95829.38;;;21.10;50.02
58092;BME280;43896;48.178;11.578;2023-07-31T09:05:36;95851.69;;;21.34;49.27
58092;BME280;43896;48.178;11.578;2023-07-31T09:08:02;95827.78;;;21.21;49.72
58092;BME280;43896;48.178;11.578;2023-07-31T09:10:28;95835.06;;;21.32;50.86
58092;BME280;43896;48.178;11.578;2023-07-31T09:12:54;95829.00;;;21.56;49.62
58092;BME280;43896;48.178;11.578;2023-07-31T09:15:20;95836.56;;;21.89;47.78
58092;BME280;43896;48.178;11.578;2023-07-31T09:17:46;95806.66;;;21.92;48.03
58092;BME280;43896;48.178;11.578;2023-07-31T09:20:20;95818.03;;;21.87;48.02
58092;BME280;43896;48.178;11.578;2023-07-31T09:22:47;95832.25;;;21.88;49.00
58092;BME280;43896;48.178;11.578;2023-07-31T09:30:15;95829.69;;;21.93;49.92
58092;BME280;43896;48.178;11.578;2023-07-31T09:32:42;95791.03;;;21.89;48.96
58092;BME280;43896;48.178;11.578;2023-07-31T09:35:22;95802.34;;;22.03;48.90
58092;BME280;43896;48.178;11.578;2023-07-31T09:37:53;95825.75;;;21.96;48.79
58092;BME280;43896;48.178;11.578;2023-07-31T09:40:46;95818.38;;;22.33;47.75
58092;BME280;43896;48.178;11.578;2023-07-31T09:43:13;95823.34;;;22.29;48.43
58092;BME280;43896;48.178;11.578;2023-07-31T09:45:42;95820.34;;;22.50;46.07
58092;BME280;43896;48.178;11.578;2023-07-31T09:48:10;95821.56;;;22.94;45.73
58092;BME280;43896;48.178;11.578;2023-07-31T09:50:37;95789.47;;;22.99;46.05
58092;BME280;43896;48.178;11.578;2023-07-31T09:53:04;95814.81;;;23.32;45.24
58092;BME280;43896;48.178;11.578;2023-07-31T09:55:29;95792.22;;;23.57;44.63
58092;BME280;43896;48.178;11.578;2023-07-31T09:57:56;95806.25;;;23.76;44.81
58092;BME280;43896;48.178;11.578;2023-07-31T10:00:23;95793.81;;;23.12;44.52
58092;BME280;43896;48.178;11.578;2023-07-31T10:02:50;95770.69;;;23.11;44.93
58092;BME280;43896;48.178;11.578;2023-07-31T10:05:17;95781.91;;;23.08;45.74
58092;BME280;43896;48.178;11.578;2023-07-31T10:07:47;95778.53;;;23.58;46.45
58092;BME280;43896;48.178;11.578;2023-07-31T10:10:16;95783.81;;;23.53;45.41
58092;BME280;43896;48.178;11.578;2023-07-31T10:12:43;95757.91;;;23.30;43.87
58092;BME280;43896;48.178;11.578;2023-07-31T10:15:09;95781.97;;;23.25;44.11
58092;BME280;43896;48.178;11.578;2023-07-31T10:17:35;95770.63;;;23.35;46.16
58092;BME280;43896;48.178;11.578;2023-07-31T10:20:02;95767.81;;;23.75;46.40
58092;BME280;43896;48.178;11.578;2023-07-31T10:22:30;95737.72;;;24.07;43.07
58092;BME280;43896;48.178;11.578;2023-07-31T10:24:58;95741.28;;;24.13;42.07
58092;BME280;43896;48.178;11.578;2023-07-31T10:27:24;95748.53;;;23.04;44.86
58092;BME280;43896;48.178;11.578;2023-07-31T10:29:52;95729.59;;;23.85;44.31
58092;BME280;43896;48.178;11.578;2023-07-31T10:32:18;95725.66;;;24.49;42.32
58092;BME280;43896;48.178;11.578;2023-07-31T10:34:45;95746.78;;;24.40;42.26
58092;BME280;43896;48.178;11.578;2023-07-31T10:37:30;95752.31;;;24.67;41.84
58092;BME280;43896;48.178;11.578;2023-07-31T10:40:06;95739.09;;;24.10;41.17
58092;BME280;43896;48.178;11.578;2023-07-31T10:42:52;95718.09;;;23.73;41.24
58092;BME280;43896;48.178;11.578;2023-07-31T10:47:58;95710.75;;;23.51;41.88
58092;BME280;43896;48.178;11.578;2023-07-31T10:50:24;95727.69;;;23.52;42.69
58092;BME280;43896;48.178;11.578;2023-07-31T10:52:54;95740.34;;;23.23;44.91
58092;BME280;43896;48.178;11.578;2023-07-31T10:55:40;95732.16;;;23.46;42.87
58092;BME280;43896;48.178;11.578;2023-07-31T10:58:08;95741.28;;;23.45;42.27
58092;BME280;43896;48.178;11.578;2023-07-31T11:00:33;95732.41;;;23.78;42.47
58092;BME280;43896;48.178;11.578;2023-07-31T11:03:03;95718.78;;;24.36;42.22
58092;BME280;43896;48.178;11.578;2023-07-31T11:06:04;95723.59;;;24.34;42.15
58092;BME280;43896;48.178;11.578;2023-07-31T11:08:32;95726.38;;;24.22;42.04
58092;BME280;43896;48.178;11.578;2023-07-31T11:13:43;95709.63;;;24.54;40.87
58092;BME280;43896;48.178;11.578;2023-07-31T11:16:10;95717.91;;;25.19;40.26
58092;BME280;43896;48.178;11.578;2023-07-31T11:18:38;95695.72;;;25.34;39.78
58092;BME280;43896;48.178;11.578;2023-07-31T11:21:04;95686.28;;;25.31;40.95
58092;BME280;43896;48.178;11.578;2023-07-31T11:23:30;95707.94;;;24.92;40.90
58092;BME280;43896;48.178;11.578;2023-07-31T11:25:59;95689.13;;;23.75;42.51
58092;BME280;43896;48.178;11.578;2023-07-31T11:28:25;95678.25;;;23.99;43.05
58092;BME280;43896;48.178;11.578;2023-07-31T11:30:50;95705.84;;;24.33;41.20
58092;BME280;43896;48.178;11.578;2023-07-31T11:33:16;95692.13;;;24.74;41.19
58092;BME280;43896;48.178;11.578;2023-07-31T11:35:46;95675.47;;;24.77;40.27
58092;BME280;43896;48.178;11.578;2023-07-31T11:40:51;95679.78;;;25.00;41.51
58092;BME280;43896;48.178;11.578;2023-07-31T11:43:17;95682.16;;;24.96;39.18
58092;BME280;43896;48.178;11.578;2023-07-31T11:45:51;95662.81;;;24.99;39.92
58092;BME280;43896;48.178;11.578;2023-07-31T11:48:25;95672.00;;;24.76;39.24
58092;BME280;43896;48.178;11.578;2023-07-31T11:50:52;95662.34;;;24.80;40.84
58092;BME280;43896;48.178;11.578;2023-07-31T11:53:25;95635.63;;;24.74;39.13
58092;BME280;43896;48.178;11.578;2023-07-31T11:55:52;95664.28;;;24.85;40.15
58092;BME280;43896;48.178;11.578;2023-07-31T11:58:17;95650.00;;;25.39;40.42
58092;BME280;43896;48.178;11.578;2023-07-31T12:00:44;95646.47;;;25.66;39.19
58092;BME280;43896;48.178;11.578;2023-07-31T12:03:10;95641.91;;;25.71;39.25
58092;BME280;43896;48.178;11.578;2023-07-31T12:05:37;95648.69;;;26.22;37.09
58092;BME280;43896;48.178;11.578;2023-07-31T12:08:08;95653.56;;;26.25;37.44
58092;BME280;43896;48.178;11.578;2023-07-31T12:10:34;95634.81;;;26.50;37.83
58092;BME280;43896;48.178;11.578;2023-07-31T12:13:04;95635.94;;;26.60;36.85
58092;BME280;43896;48.178;11.578;2023-07-31T12:15:40;95632.22;;;26.71;36.04
58092;BME280;43896;48.178;11.578;2023-07-31T12:18:07;95620.53;;;26.55;37.71
58092;BME280;43896;48.178;11.578;2023-07-31T12:20:33;95622.44;;;26.60;38.26
58092;BME280;43896;48.178;11.578;2023-07-31T12:22:59;95608.44;;;26.63;37.08
58092;BME280;43896;48.178;11.578;2023-07-31T12:25:32;95608.41;;;26.57;38.09
58092;BME280;43896;48.178;11.578;2023-07-31T12:27:58;95591.44;;;25.99;36.70
58092;BME280;43896;48.178;11.578;2023-07-31T12:30:32;95589.44;;;26.32;37.53
58092;BME280;43896;48.178;11.578;2023-07-31T12:33:06;95598.25;;;26.90;36.07
58092;BME280;43896;48.178;11.578;2023-07-31T12:35:38;95598.22;;;26.80;36.12
58092;BME280;43896;48.178;11.578;2023-07-31T12:38:05;95591.09;;;26.38;35.24
58092;BME280;43896;48.178;11.578;2023-07-31T12:40:31;95569.53;;;26.43;35.73
58092;BME280;43896;48.178;11.578;2023-07-31T12:42:56;95587.75;;;26.15;35.40
58092;BME280;43896;48.178;11.578;2023-07-31T12:45:21;95577.38;;;26.55;36.23
58092;BME280;43896;48.178;11.578;2023-07-31T12:47:48;95587.44;;;26.65;35.28
58092;BME280;43896;48.178;11.578;2023-07-31T12:50:14;95579.28;;;26.60;35.07
58092;BME280;43896;48.178;11.578;2023-07-31T12:52:39;95577.44;;;26.70;35.40
58092;BME280;43896;48.178;11.578;2023-07-31T12:55:04;95569.63;;;26.69;34.61
58092;BME280;43896;48.178;11.578;2023-07-31T12:57:30;95567.25;;;26.09;36.86
58092;BME280;43896;48.178;11.578;2023-07-31T12:59:55;95564.69;;;26.50;35.30
58092;BME280;43896;48.178;11.578;2023-07-31T13:02:21;95572.56;;;26.62;36.38
58092;BME280;43896;48.178;11.578;2023-07-31T13:04:47;95573.25;;;26.27;35.73
58092;BME280;43896;48.178;11.578;2023-07-31T13:07:12;95575.34;;;26.09;36.05